createdAt,value
2023-04-05T00:01:34.762Z,-3.88
2023-04-05T00:04:03.877Z,-3.85
2023-04-05T00:06:33.131Z,-3.85
2023-04-05T00:09:04.429Z,-3.87
2023-04-05T00:11:35.288Z,-3.89
2023-04-05T00:14:04.918Z,-3.90
2023-04-05T00:16:36.454Z,-3.94
2023-04-05T00:19:05.061Z,-3.78
2023-04-05T00:21:34.654Z,-3.95
2023-04-05T00:24:02.935Z,-3.85
2023-04-05T00:26:31.675Z,-3.94
2023-04-05T00:28:59.843Z,-4.13
2023-04-05T00:31:28.659Z,-4.22
2023-04-05T00:33:58.919Z,-4.32
2023-04-05T00:36:27.800Z,-4.38
2023-04-05T00:38:56.742Z,-4.37
2023-04-05T00:41:25.050Z,-4.19
2023-04-05T00:43:53.222Z,-4.26
2023-04-05T00:46:22.106Z,-4.34
2023-04-05T00:48:51.303Z,-4.24
2023-04-05T00:51:21.290Z,-4.24
2023-04-05T00:53:53.050Z,-4.17
2023-04-05T00:56:23.012Z,-4.13
2023-04-05T00:58:53.393Z,-4.24
2023-04-05T01:01:23.389Z,-4.19
2023-04-05T01:03:54.994Z,-4.20
2023-04-05T01:06:46.144Z,-4.20
2023-04-05T01:09:24.341Z,-4.16
2023-04-05T01:11:56.129Z,-4.22
2023-04-05T01:14:24.409Z,-4.18
2023-04-05T01:16:58.393Z,-4.24
2023-04-05T01:19:29.736Z,-4.35
2023-04-05T01:22:21.032Z,-4.41
2023-04-05T01:25:19.511Z,-4.15
2023-04-05T01:28:03.663Z,-4.31
2023-04-05T01:30:37.638Z,-4.25
2023-04-05T01:33:15.076Z,-4.31
2023-04-05T01:35:53.686Z,-4.41
2023-04-05T01:38:26.309Z,-4.45
2023-04-05T01:40:55.462Z,-4.35
2023-04-05T01:43:24.317Z,-4.41
2023-04-05T01:45:53.993Z,-4.28
2023-04-05T01:48:22.031Z,-4.15
2023-04-05T01:50:50.358Z,-4.19
2023-04-05T01:53:18.830Z,-4.25
2023-04-05T01:55:47.248Z,-4.28
2023-04-05T01:58:15.352Z,-4.33
2023-04-05T02:00:43.997Z,-4.23
2023-04-05T02:03:14.360Z,-4.25
2023-04-05T02:05:43.841Z,-4.05
2023-04-05T02:08:11.920Z,-4.13
2023-04-05T02:10:40.741Z,-4.08
2023-04-05T02:13:10.029Z,-4.10
2023-04-05T02:15:38.791Z,-4.10
2023-04-05T02:18:08.155Z,-4.19
2023-04-05T02:20:38.963Z,-4.13
2023-04-05T02:23:07.611Z,-4.07
2023-04-05T02:25:36.298Z,-3.92
2023-04-05T02:28:06.421Z,-3.81
2023-04-05T02:30:35.023Z,-3.92
2023-04-05T02:33:03.627Z,-3.91
2023-04-05T02:35:31.836Z,-3.97
2023-04-05T02:38:02.104Z,-3.95
2023-04-05T02:40:30.165Z,-3.89
2023-04-05T02:42:58.158Z,-3.69
2023-04-05T02:45:28.060Z,-3.68
2023-04-05T02:47:58.858Z,-3.77
2023-04-05T02:50:31.372Z,-3.87
2023-04-05T02:53:01.200Z,-3.94
2023-04-05T02:55:34.199Z,-3.85
2023-04-05T02:58:04.000Z,-3.83
2023-04-05T03:00:41.224Z,-3.90
2023-04-05T03:03:11.498Z,-3.99
2023-04-05T03:05:43.583Z,-3.97
2023-04-05T03:08:19.697Z,-3.87
2023-04-05T03:10:58.908Z,-3.89
2023-04-05T03:13:27.383Z,-3.74
2023-04-05T03:15:56.600Z,-3.77
2023-04-05T03:18:27.602Z,-3.58
2023-04-05T03:21:00.007Z,-3.60
2023-04-05T03:23:32.089Z,-3.60
2023-04-05T03:26:01.729Z,-3.58
2023-04-05T03:28:34.403Z,-3.47
2023-04-05T03:31:07.074Z,-3.40
2023-04-05T03:33:36.401Z,-3.23
2023-04-05T03:36:06.029Z,-3.11
2023-04-05T03:38:40.312Z,-3.06
2023-04-05T03:41:16.333Z,-2.95
2023-04-05T03:43:44.813Z,-3.00
2023-04-05T03:46:13.207Z,-3.04
2023-04-05T03:48:41.960Z,-3.00
2023-04-05T03:51:11.869Z,-3.02
2023-04-05T03:53:41.898Z,-2.89
2023-04-05T03:56:10.792Z,-2.88
2023-04-05T03:58:46.813Z,-2.76
2023-04-05T04:01:16.631Z,-2.75
2023-04-05T04:03:44.983Z,-2.68
2023-04-05T04:06:13.669Z,-2.72
2023-04-05T04:08:44.172Z,-2.73
2023-04-05T04:11:12.613Z,-2.75
2023-04-05T04:13:42.789Z,-2.73
2023-04-05T04:16:30.772Z,-2.76
2023-04-05T04:18:59.187Z,-2.84
2023-04-05T04:22:01.705Z,-2.99
2023-04-05T04:25:11.886Z,-3.14
2023-04-05T04:28:04.522Z,-3.22
2023-04-05T04:30:48.735Z,-3.32
2023-04-05T04:33:35.465Z,-3.30
2023-04-05T04:36:35.209Z,-3.32
2023-04-05T04:39:26.803Z,-3.38
2023-04-05T04:42:25.925Z,-3.35
2023-04-05T04:44:55.478Z,-3.37
2023-04-05T04:47:31.918Z,-3.39
2023-04-05T04:50:16.272Z,-3.44
2023-04-05T04:52:44.814Z,-3.38
2023-04-05T04:55:14.482Z,-3.36
2023-04-05T04:57:44.822Z,-3.43
2023-04-05T05:00:16.163Z,-3.58
2023-04-05T05:02:45.263Z,-3.68
2023-04-05T05:05:16.223Z,-3.70
2023-04-05T05:07:44.729Z,-3.68
2023-04-05T05:10:16.405Z,-3.66
2023-04-05T05:12:46.301Z,-3.64
2023-04-05T05:15:16.491Z,-3.51
2023-04-05T05:17:45.610Z,-3.48
2023-04-05T05:20:14.016Z,-3.32
2023-04-05T05:22:47.052Z,-3.28
2023-04-05T05:25:15.647Z,-3.26
2023-04-05T05:27:45.671Z,-3.14
2023-04-05T05:30:15.588Z,-3.05
2023-04-05T05:32:44.105Z,-2.90
2023-04-05T05:35:12.303Z,-2.66
2023-04-05T05:37:41.379Z,-2.45
2023-04-05T05:40:13.433Z,-2.27
2023-04-05T05:42:41.793Z,-2.13
2023-04-05T05:45:12.491Z,-2.02
2023-04-05T05:47:42.210Z,-1.97
2023-04-05T05:50:11.664Z,-1.82
2023-04-05T05:52:39.999Z,-1.53
2023-04-05T05:55:09.507Z,-1.41
2023-04-05T05:57:38.921Z,-1.41
2023-04-05T06:00:11.246Z,-1.41
2023-04-05T06:02:48.929Z,-1.29
2023-04-05T06:05:17.669Z,-1.08
2023-04-05T06:07:45.770Z,-0.95
2023-04-05T06:10:14.483Z,-0.84
2023-04-05T06:12:42.714Z,-0.65
2023-04-05T06:15:12.126Z,-0.41
2023-04-05T06:17:43.037Z,-0.40
2023-04-05T06:20:13.232Z,-0.50
2023-04-05T06:22:41.917Z,-0.24
2023-04-05T06:25:12.951Z,-0.19
2023-04-05T06:27:41.616Z,-0.14
2023-04-05T06:30:10.763Z,0.01
2023-04-05T06:32:39.049Z,0.20
2023-04-05T06:35:08.615Z,0.23
2023-04-05T06:37:38.222Z,0.21
2023-04-05T06:40:08.256Z,0.12
2023-04-05T06:42:36.327Z,0.32
2023-04-05T06:45:08.459Z,0.30
2023-04-05T06:47:36.990Z,0.25
2023-04-05T06:50:05.840Z,0.22
2023-04-05T06:52:34.906Z,0.26
2023-04-05T06:55:05.298Z,0.40
2023-04-05T06:57:33.945Z,0.39
2023-04-05T07:00:02.529Z,0.24
2023-04-05T07:02:30.716Z,0.41
2023-04-05T07:05:05.115Z,0.61
2023-04-05T07:07:34.105Z,2.27
2023-04-05T07:10:04.464Z,5.64
2023-04-05T07:12:33.746Z,6.92
2023-04-05T07:15:02.393Z,8.88
2023-04-05T07:17:31.302Z,10.23
2023-04-05T07:19:59.810Z,10.15
2023-04-05T07:22:28.177Z,12.12
2023-04-05T07:24:56.727Z,13.41
2023-04-05T07:27:27.471Z,12.45
2023-04-05T07:29:59.165Z,12.21
2023-04-05T07:32:27.582Z,12.03
2023-04-05T07:34:56.872Z,11.11
2023-04-05T07:37:26.019Z,11.22
2023-04-05T07:39:54.621Z,11.51
2023-04-05T07:42:23.239Z,9.48
2023-04-05T07:47:36.708Z,11.50
2023-04-05T07:50:07.170Z,13.32
2023-04-05T07:52:35.616Z,13.87
2023-04-05T07:55:04.072Z,13.22
2023-04-05T07:57:32.523Z,13.40
2023-04-05T08:00:02.290Z,13.79
2023-04-05T08:02:41.493Z,12.56
2023-04-05T08:05:09.977Z,11.92
2023-04-05T08:07:46.310Z,11.59
2023-04-05T08:10:14.671Z,10.35
2023-04-05T08:12:43.452Z,13.43
2023-04-05T08:15:13.380Z,11.66
2023-04-05T08:17:41.827Z,11.88
2023-04-05T08:20:11.281Z,11.33
2023-04-05T08:22:39.446Z,11.20
2023-04-05T08:25:09.215Z,9.05
2023-04-05T08:27:37.290Z,7.66
2023-04-05T08:30:07.920Z,10.77
2023-04-05T08:32:37.750Z,10.31
2023-04-05T08:35:07.235Z,9.73
2023-04-05T08:37:43.020Z,11.83
2023-04-05T08:40:12.971Z,10.17
2023-04-05T08:42:47.944Z,7.04
2023-04-05T08:45:20.275Z,7.82
2023-04-05T08:47:53.375Z,8.11
2023-04-05T08:50:21.987Z,7.85
2023-04-05T08:52:51.098Z,8.98
2023-04-05T08:55:44.682Z,9.82
2023-04-05T08:58:15.800Z,9.77
2023-04-05T09:00:44.978Z,9.74
2023-04-05T09:03:19.622Z,8.41
2023-04-05T09:05:49.921Z,6.93
2023-04-05T09:08:19.030Z,7.83
2023-04-05T09:10:47.424Z,7.97
2023-04-05T09:13:15.500Z,7.44
2023-04-05T09:15:44.228Z,8.31
2023-04-05T09:18:23.250Z,9.85
2023-04-05T09:21:04.138Z,9.96
2023-04-05T09:23:32.718Z,9.51
2023-04-05T09:26:01.166Z,9.26
2023-04-05T09:28:43.449Z,7.92
2023-04-05T09:31:11.734Z,7.08
2023-04-05T09:33:43.142Z,6.39
2023-04-05T09:36:12.970Z,5.85
2023-04-05T09:38:45.566Z,5.59
2023-04-05T09:41:14.203Z,5.88
2023-04-05T09:43:43.934Z,5.72
2023-04-05T09:46:31.700Z,5.66
2023-04-05T09:49:01.064Z,5.31
2023-04-05T09:51:37.912Z,5.27
2023-04-05T09:54:09.818Z,5.19
2023-04-05T09:56:39.615Z,4.79
2023-04-05T09:59:11.250Z,4.50
2023-04-05T10:01:41.658Z,4.41
2023-04-05T10:04:10.464Z,4.46
2023-04-05T10:06:42.233Z,4.19
2023-04-05T10:09:12.590Z,4.20
2023-04-05T10:11:40.910Z,4.06
2023-04-05T10:14:09.837Z,4.03
2023-04-05T10:16:42.430Z,4.22
2023-04-05T10:19:18.229Z,4.28
2023-04-05T10:21:49.075Z,4.32
2023-04-05T10:24:30.196Z,4.16
2023-04-05T10:27:06.926Z,4.24
2023-04-05T10:29:42.380Z,4.29
2023-04-05T10:32:15.479Z,4.31
2023-04-05T10:34:49.833Z,4.49
2023-04-05T10:37:36.985Z,4.99
2023-04-05T10:40:09.507Z,5.12
2023-04-05T10:42:42.932Z,4.93
2023-04-05T10:45:15.853Z,5.17
2023-04-05T10:47:48.951Z,5.74
2023-04-05T10:50:24.580Z,6.10
2023-04-05T10:52:54.688Z,6.41
2023-04-05T10:55:23.179Z,6.13
2023-04-05T10:57:52.583Z,5.07
2023-04-05T11:00:21.770Z,4.98
2023-04-05T11:02:55.300Z,5.43
2023-04-05T11:05:34.545Z,6.04
2023-04-05T11:08:09.946Z,5.55
2023-04-05T11:10:39.875Z,4.74
2023-04-05T11:13:10.742Z,4.83
2023-04-05T11:15:40.138Z,4.65
2023-04-05T11:18:10.600Z,4.59
2023-04-05T11:20:44.206Z,4.15
2023-04-05T11:23:16.086Z,4.15
2023-04-05T11:25:48.885Z,4.31
2023-04-05T11:28:25.754Z,4.69
2023-04-05T11:30:57.232Z,4.70
2023-04-05T11:33:58.833Z,4.12
2023-04-05T11:36:37.863Z,4.21
2023-04-05T11:39:30.445Z,4.42
2023-04-05T11:42:03.190Z,4.41
2023-04-05T11:44:40.688Z,4.53
2023-04-05T11:47:09.567Z,4.62
2023-04-05T11:49:38.328Z,4.91
2023-04-05T11:52:17.509Z,5.24
2023-04-05T11:54:49.389Z,5.77
2023-04-05T11:57:22.469Z,5.75
2023-04-05T11:59:52.135Z,5.79
2023-04-05T12:02:21.130Z,6.85
2023-04-05T12:04:56.688Z,6.52
2023-04-05T12:07:28.385Z,7.31
2023-04-05T12:10:16.205Z,8.42
2023-04-05T12:12:48.034Z,7.89
2023-04-05T12:15:18.955Z,7.29
2023-04-05T12:17:49.742Z,7.01
2023-04-05T12:20:20.971Z,5.87
2023-04-05T12:22:50.779Z,5.81
2023-04-05T12:25:21.772Z,6.06
2023-04-05T12:27:50.064Z,6.07
2023-04-05T12:30:19.462Z,5.30
2023-04-05T12:32:49.372Z,5.20
2023-04-05T12:35:20.059Z,5.39
2023-04-05T12:37:48.513Z,5.63
2023-04-05T12:40:24.023Z,5.69
2023-04-05T12:42:53.536Z,5.74
2023-04-05T12:45:25.124Z,5.70
2023-04-05T12:47:54.736Z,5.40
2023-04-05T12:50:29.228Z,5.87
2023-04-05T12:53:02.133Z,6.00
2023-04-05T12:55:32.734Z,5.52
2023-04-05T12:58:04.065Z,5.51
2023-04-05T13:00:33.073Z,5.65
2023-04-05T13:03:01.937Z,5.54
2023-04-05T13:05:31.929Z,5.48
2023-04-05T13:08:00.601Z,5.26
2023-04-05T13:10:29.096Z,4.97
2023-04-05T13:12:58.480Z,4.91
2023-04-05T13:15:27.334Z,4.59
2023-04-05T13:17:55.551Z,4.84
2023-04-05T13:20:24.043Z,5.12
2023-04-05T13:22:52.306Z,5.62
2023-04-05T13:25:20.685Z,5.67
2023-04-05T13:27:48.916Z,5.49
2023-04-05T13:30:19.332Z,5.18
2023-04-05T13:32:47.900Z,5.04
2023-04-05T13:35:16.310Z,5.03
2023-04-05T13:37:44.516Z,4.79
2023-04-05T13:40:13.404Z,4.54
2023-04-05T13:42:41.740Z,4.39
2023-04-05T13:45:10.889Z,4.38
2023-04-05T13:47:40.838Z,4.48
2023-04-05T13:50:10.489Z,4.43
2023-04-05T13:52:38.783Z,4.41
2023-04-05T13:55:07.791Z,4.42
2023-04-05T13:57:36.099Z,4.27
2023-04-05T14:00:04.993Z,4.12
2023-04-05T14:02:41.817Z,4.04
2023-04-05T14:05:10.721Z,4.13
2023-04-05T14:07:39.497Z,4.23
2023-04-05T14:10:08.802Z,4.17
2023-04-05T14:12:37.185Z,4.29
2023-04-05T14:15:06.977Z,4.44
2023-04-05T14:17:35.353Z,4.43
2023-04-05T14:20:05.537Z,4.35
2023-04-05T14:22:34.286Z,4.61
2023-04-05T14:25:02.913Z,4.78
2023-04-05T14:27:31.378Z,5.36
2023-04-05T14:29:59.832Z,5.39
2023-04-05T14:32:29.381Z,4.68
2023-04-05T14:34:58.665Z,4.04
2023-04-05T14:37:28.681Z,3.83
2023-04-05T14:39:57.257Z,3.67
2023-04-05T14:42:34.112Z,3.61
2023-04-05T14:45:11.363Z,3.46
2023-04-05T14:47:39.906Z,3.50
2023-04-05T14:50:09.298Z,3.61
2023-04-05T14:52:40.307Z,3.66
2023-04-05T14:55:09.395Z,3.70
2023-04-05T14:57:37.352Z,3.78
2023-04-05T15:00:08.507Z,3.89
2023-04-05T15:02:38.271Z,3.93
2023-04-05T15:05:07.559Z,3.96
2023-04-05T15:07:35.900Z,3.99
2023-04-05T15:10:06.838Z,4.01
2023-04-05T15:12:35.179Z,4.15
2023-04-05T15:15:03.942Z,4.23
2023-04-05T15:17:32.248Z,4.38
2023-04-05T15:20:00.390Z,4.49
2023-04-05T15:22:28.833Z,4.44
2023-04-05T15:24:57.646Z,4.33
2023-04-05T15:27:27.206Z,4.33
2023-04-05T15:29:55.635Z,4.31
2023-04-05T15:32:24.164Z,4.34
2023-04-05T15:34:52.476Z,4.34
2023-04-05T15:37:20.628Z,4.16
2023-04-05T15:39:49.931Z,4.03
2023-04-05T15:42:18.935Z,3.77
2023-04-05T15:44:49.021Z,3.64
2023-04-05T15:47:18.007Z,3.59
2023-04-05T15:49:46.651Z,3.45
2023-04-05T15:52:15.857Z,3.56
2023-04-05T15:54:44.899Z,3.45
2023-04-05T15:57:12.864Z,3.28
2023-04-05T15:59:41.231Z,3.25
2023-04-05T16:02:10.778Z,2.96
2023-04-05T16:04:39.460Z,2.92
2023-04-05T16:07:07.766Z,2.78
2023-04-05T16:09:36.558Z,2.69
2023-04-05T16:12:05.499Z,2.57
2023-04-05T16:14:34.376Z,2.52
2023-04-05T16:17:02.941Z,2.53
2023-04-05T16:19:33.407Z,2.61
2023-04-05T16:22:03.501Z,2.62
2023-04-05T16:24:33.227Z,2.67
2023-04-05T16:27:01.687Z,2.64
2023-04-05T16:29:29.933Z,2.63
2023-04-05T16:31:58.218Z,2.59
2023-04-05T16:34:26.835Z,2.65
2023-04-05T16:36:56.636Z,2.61
2023-04-05T16:39:24.936Z,2.50
2023-04-05T16:41:53.603Z,2.59
2023-04-05T16:44:22.011Z,2.69
2023-04-05T16:46:50.084Z,2.80
2023-04-05T16:49:18.494Z,2.59
2023-04-05T16:51:46.929Z,2.55
2023-04-05T16:54:17.438Z,2.56
2023-04-05T16:56:46.076Z,2.53
2023-04-05T16:59:14.332Z,2.44
2023-04-05T17:04:20.320Z,2.92
2023-04-05T17:06:49.372Z,3.12
2023-04-05T17:09:17.715Z,3.04
2023-04-05T17:11:46.437Z,2.84
2023-04-05T17:14:15.067Z,2.67
2023-04-05T17:16:47.977Z,2.42
2023-04-05T17:19:44.425Z,2.33
2023-04-05T17:22:12.867Z,2.20
2023-04-05T17:24:41.448Z,2.17
2023-04-05T17:27:10.150Z,1.92
2023-04-05T17:29:39.287Z,1.82
2023-04-05T17:32:08.401Z,1.76
2023-04-05T17:34:36.918Z,1.60
2023-04-05T17:37:14.529Z,1.57
2023-04-05T17:39:42.922Z,1.51
2023-04-05T17:42:11.374Z,1.45
2023-04-05T17:44:40.009Z,1.31
2023-04-05T17:47:09.770Z,1.25
2023-04-05T17:49:38.355Z,1.24
2023-04-05T17:52:09.443Z,1.12
2023-04-05T17:54:38.141Z,1.03
2023-04-05T17:57:06.690Z,0.99
2023-04-05T17:59:36.171Z,1.00
2023-04-05T18:02:04.704Z,0.96
2023-04-05T18:04:33.499Z,0.95
2023-04-05T18:07:01.898Z,1.00
2023-04-05T18:09:32.107Z,0.94
2023-04-05T18:12:01.755Z,0.95
2023-04-05T18:14:30.496Z,0.93
2023-04-05T18:16:59.426Z,0.84
2023-04-05T18:19:27.920Z,0.83
2023-04-05T18:21:56.292Z,0.70
2023-04-05T18:24:24.615Z,0.10
2023-04-05T18:26:54.134Z,-0.01
2023-04-05T18:29:28.211Z,-0.08
2023-04-05T18:31:56.663Z,-0.06
2023-04-05T18:34:26.031Z,-0.14
2023-04-05T18:36:54.255Z,-0.37
2023-04-05T18:39:25.108Z,-0.51
2023-04-05T18:41:56.614Z,-0.57
2023-04-05T18:44:24.952Z,-0.63
2023-04-05T18:46:53.796Z,-0.64
2023-04-05T18:49:22.740Z,-0.66
2023-04-05T18:51:50.866Z,-0.62
2023-04-05T18:54:19.451Z,-0.74
2023-04-05T18:56:47.762Z,-0.72
2023-04-05T18:59:17.542Z,-0.96
2023-04-05T19:01:45.817Z,-1.11
2023-04-05T19:04:16.331Z,-1.24
2023-04-05T19:06:44.877Z,-1.39
2023-04-05T19:09:13.083Z,-1.42
2023-04-05T19:11:41.719Z,-1.51
2023-04-05T19:14:09.740Z,-1.56
2023-04-05T19:16:39.754Z,-1.54
2023-04-05T19:19:08.369Z,-1.62
2023-04-05T19:21:36.653Z,-1.54
2023-04-05T19:24:05.527Z,-1.47
2023-04-05T19:26:33.983Z,-1.54
2023-04-05T19:29:03.536Z,-1.50
2023-04-05T19:31:32.354Z,-1.60
2023-04-05T19:34:02.279Z,-1.64
2023-04-05T19:36:30.963Z,-1.76
2023-04-05T19:38:59.275Z,-1.81
2023-04-05T19:41:32.673Z,-1.85
2023-04-05T19:44:01.417Z,-1.85
2023-04-05T19:46:31.298Z,-2.00
2023-04-05T19:49:09.152Z,-2.00
2023-04-05T19:51:37.755Z,-2.09
2023-04-05T19:54:11.995Z,-2.04
2023-04-05T19:56:40.739Z,-2.06
2023-04-05T19:59:28.545Z,-2.11
2023-04-05T20:01:58.110Z,-2.08
2023-04-05T20:04:28.783Z,-2.19
2023-04-05T20:06:56.957Z,-2.19
2023-04-05T20:09:26.824Z,-2.27
2023-04-05T20:11:58.028Z,-2.20
2023-04-05T20:14:30.468Z,-2.10
2023-04-05T20:16:59.550Z,-2.01
2023-04-05T20:19:31.054Z,-2.10
2023-04-05T20:22:01.301Z,-2.03
2023-04-05T20:24:30.662Z,-1.99
2023-04-05T20:26:59.200Z,-2.05
2023-04-05T20:29:29.327Z,-1.99
2023-04-05T20:31:57.785Z,-2.12
2023-04-05T20:34:30.661Z,-1.96
2023-04-05T20:37:00.717Z,-2.04
2023-04-05T20:39:29.672Z,-2.18
2023-04-05T20:41:58.477Z,-2.12
2023-04-05T20:44:27.965Z,-2.10
2023-04-05T20:46:58.317Z,-2.06
2023-04-05T20:49:31.497Z,-1.91
2023-04-05T20:51:59.974Z,-1.88
2023-04-05T20:54:28.376Z,-1.90
2023-04-05T20:56:56.950Z,-2.01
2023-04-05T20:59:26.477Z,-2.11
2023-04-05T21:01:55.112Z,-2.13
2023-04-05T21:04:23.553Z,-2.10
2023-04-05T21:06:53.771Z,-2.06
2023-04-05T21:09:21.864Z,-1.99
2023-04-05T21:11:50.008Z,-2.02
2023-04-05T21:14:18.456Z,-1.93
2023-04-05T21:16:46.853Z,-2.03
2023-04-05T21:19:15.001Z,-2.18
2023-04-05T21:21:43.758Z,-2.29
2023-04-05T21:24:13.479Z,-2.21
2023-04-05T21:26:41.778Z,-2.13
2023-04-05T21:29:10.188Z,-2.21
2023-04-05T21:31:38.507Z,-2.25
2023-04-05T21:34:06.936Z,-2.25
2023-04-05T21:36:35.137Z,-2.13
2023-04-05T21:39:03.291Z,-2.17
2023-04-05T21:41:33.252Z,-2.20
2023-04-05T21:44:01.636Z,-2.08
2023-04-05T21:46:29.797Z,-2.15
2023-04-05T21:48:57.951Z,-2.16
2023-04-05T21:51:26.331Z,-2.14
2023-04-05T21:53:54.524Z,-2.19
2023-04-05T21:56:22.779Z,-2.26
2023-04-05T21:58:52.447Z,-2.39
2023-04-05T22:01:20.962Z,-2.33
2023-04-05T22:03:49.162Z,-2.35
2023-04-05T22:06:17.401Z,-2.45
2023-04-05T22:08:45.923Z,-2.57
2023-04-05T22:11:14.298Z,-2.66
2023-04-05T22:13:42.698Z,-2.74
2023-04-05T22:16:12.507Z,-2.70
2023-04-05T22:18:41.628Z,-2.71
2023-04-05T22:21:11.264Z,-2.77
2023-04-05T22:23:41.065Z,-2.84
2023-04-05T22:26:11.136Z,-2.92
2023-04-05T22:28:39.278Z,-2.77
2023-04-05T22:31:07.459Z,-2.92
2023-04-05T22:33:37.139Z,-3.02
2023-04-05T22:36:06.154Z,-3.05
2023-04-05T22:38:34.563Z,-3.00
2023-04-05T22:41:02.848Z,-3.00
2023-04-05T22:43:31.505Z,-3.07
2023-04-05T22:45:59.858Z,-3.15
2023-04-05T22:48:28.044Z,-3.11
2023-04-05T22:50:58.247Z,-2.99
2023-04-05T22:53:26.295Z,-2.98
2023-04-05T22:55:54.861Z,-2.97
2023-04-05T22:58:23.119Z,-3.09
2023-04-05T23:00:51.582Z,-3.06
2023-04-05T23:03:19.774Z,-3.20
2023-04-05T23:05:48.534Z,-3.31
2023-04-05T23:08:18.472Z,-3.39
2023-04-05T23:10:47.162Z,-3.55
2023-04-05T23:13:15.436Z,-3.59
2023-04-05T23:15:43.806Z,-3.44
2023-04-05T23:18:12.165Z,-3.38
2023-04-05T23:20:40.558Z,-3.32
2023-04-05T23:23:08.617Z,-3.33
2023-04-05T23:25:38.581Z,-3.31
2023-04-05T23:28:07.492Z,-3.38
2023-04-05T23:30:35.646Z,-3.47
2023-04-05T23:33:03.922Z,-3.40
2023-04-05T23:35:32.145Z,-3.45
2023-04-05T23:38:00.497Z,-3.56
2023-04-05T23:40:28.812Z,-3.53
2023-04-05T23:42:58.523Z,-3.59
2023-04-05T23:45:27.144Z,-3.62
2023-04-05T23:47:55.795Z,-3.69
2023-04-05T23:50:23.942Z,-3.74
2023-04-05T23:52:52.540Z,-3.72
2023-04-05T23:55:21.759Z,-3.76
2023-04-05T23:57:50.016Z,-3.80
